sensor_id;sensor_type;location;lat;lon;timestamp;P1;durP1;ratioP1;P2;durP2;ratioP2
46745;SDS011;32493;50.514;9.678;2023-03-01T00:00:03;29.70;;;15.10;;
46745;SDS011;32493;50.514;9.678;2023-03-01T00:02:12;27.83;;;14.00;;
46745;SDS011;32493;50.514;9.678;2023-03-01T00:04:20;43.53;;;16.92;;
46745;SDS011;32493;50.514;9.678;2023-03-01T00:08:32;33.90;;;13.95;;
46745;SDS011;32493;50.514;9.678;2023-03-01T00:10:38;27.13;;;14.07;;
46745;SDS011;32493;50.514;9.678;2023-03-01T00:12:44;32.78;;;14.75;;
46745;SDS011;32493;50.514;9.678;2023-03-01T00:14:49;30.20;;;14.70;;
46745;SDS011;32493;50.514;9.678;2023-03-01T00:16:55;31.50;;;14.50;;
46745;SDS011;32493;50.514;9.678;2023-03-01T00:19:00;31.13;;;15.15;;
46745;SDS011;32493;50.514;9.678;2023-03-01T00:21:09;29.42;;;15.55;;
46745;SDS011;32493;50.514;9.678;2023-03-01T00:23:15;30.90;;;14.90;;
46745;SDS011;32493;50.514;9.678;2023-03-01T00:25:21;29.20;;;14.45;;
46745;SDS011;32493;50.514;9.678;2023-03-01T00:27:28;31.83;;;15.27;;
46745;SDS011;32493;50.514;9.678;2023-03-01T00:29:33;29.17;;;15.02;;
46745;SDS011;32493;50.514;9.678;2023-03-01T00:31:38;36.30;;;15.88;;
46745;SDS011;32493;50.514;9.678;2023-03-01T00:33:43;42.50;;;15.68;;
46745;SDS011;32493;50.514;9.678;2023-03-01T00:35:50;36.47;;;15.48;;
46745;SDS011;32493;50.514;9.678;2023-03-01T00:38:01;31.67;;;15.07;;
46745;SDS011;32493;50.514;9.678;2023-03-01T00:40:07;27.00;;;14.00;;
46745;SDS011;32493;50.514;9.678;2023-03-01T00:42:14;30.13;;;14.65;;
46745;SDS011;32493;50.514;9.678;2023-03-01T00:44:19;32.35;;;13.73;;
46745;SDS011;32493;50.514;9.678;2023-03-01T00:46:26;30.55;;;13.57;;
46745;SDS011;32493;50.514;9.678;2023-03-01T00:48:32;25.67;;;13.43;;
46745;SDS011;32493;50.514;9.678;2023-03-01T00:50:38;28.52;;;14.13;;
46745;SDS011;32493;50.514;9.678;2023-03-01T00:52:43;26.40;;;13.30;;
46745;SDS011;32493;50.514;9.678;2023-03-01T00:54:54;36.83;;;14.48;;
46745;SDS011;32493;50.514;9.678;2023-03-01T00:56:59;30.58;;;14.30;;
46745;SDS011;32493;50.514;9.678;2023-03-01T00:59:04;27.92;;;14.02;;
46745;SDS011;32493;50.514;9.678;2023-03-01T01:01:09;30.63;;;14.50;;
46745;SDS011;32493;50.514;9.678;2023-03-01T01:03:21;29.00;;;14.00;;
46745;SDS011;32493;50.514;9.678;2023-03-01T01:05:28;30.80;;;14.05;;
46745;SDS011;32493;50.514;9.678;2023-03-01T01:07:33;23.98;;;13.05;;
46745;SDS011;32493;50.514;9.678;2023-03-01T01:09:39;27.42;;;14.52;;
46745;SDS011;32493;50.514;9.678;2023-03-01T01:11:48;26.67;;;14.73;;
46745;SDS011;32493;50.514;9.678;2023-03-01T01:13:55;29.40;;;14.13;;
46745;SDS011;32493;50.514;9.678;2023-03-01T01:16:03;29.20;;;14.13;;
46745;SDS011;32493;50.514;9.678;2023-03-01T01:18:09;26.50;;;13.70;;
46745;SDS011;32493;50.514;9.678;2023-03-01T01:20:15;24.15;;;13.55;;
46745;SDS011;32493;50.514;9.678;2023-03-01T01:22:21;29.95;;;14.02;;
46745;SDS011;32493;50.514;9.678;2023-03-01T01:24:26;27.90;;;14.02;;
46745;SDS011;32493;50.514;9.678;2023-03-01T01:26:32;26.95;;;13.45;;
46745;SDS011;32493;50.514;9.678;2023-03-01T01:28:42;25.88;;;13.85;;
46745;SDS011;32493;50.514;9.678;2023-03-01T01:30:47;29.40;;;14.05;;
46745;SDS011;32493;50.514;9.678;2023-03-01T01:32:52;29.88;;;13.43;;
46745;SDS011;32493;50.514;9.678;2023-03-01T01:34:57;32.88;;;15.40;;
46745;SDS011;32493;50.514;9.678;2023-03-01T01:37:02;24.40;;;13.20;;
46745;SDS011;32493;50.514;9.678;2023-03-01T01:39:09;24.15;;;13.40;;
46745;SDS011;32493;50.514;9.678;2023-03-01T01:41:16;28.45;;;13.77;;
46745;SDS011;32493;50.514;9.678;2023-03-01T01:43:22;25.95;;;13.85;;
46745;SDS011;32493;50.514;9.678;2023-03-01T01:45:34;25.95;;;13.68;;
46745;SDS011;32493;50.514;9.678;2023-03-01T01:47:40;27.90;;;13.15;;
46745;SDS011;32493;50.514;9.678;2023-03-01T01:49:50;27.33;;;13.93;;
46745;SDS011;32493;50.514;9.678;2023-03-01T01:52:00;27.88;;;14.10;;
46745;SDS011;32493;50.514;9.678;2023-03-01T01:54:14;26.10;;;13.80;;
46745;SDS011;32493;50.514;9.678;2023-03-01T01:56:23;26.58;;;13.15;;
46745;SDS011;32493;50.514;9.678;2023-03-01T01:58:31;26.35;;;13.95;;
46745;SDS011;32493;50.514;9.678;2023-03-01T02:00:39;26.67;;;13.82;;
46745;SDS011;32493;50.514;9.678;2023-03-01T02:02:45;30.80;;;15.40;;
46745;SDS011;32493;50.514;9.678;2023-03-01T02:05:00;29.90;;;15.27;;
46745;SDS011;32493;50.514;9.678;2023-03-01T02:07:15;26.45;;;13.93;;
46745;SDS011;32493;50.514;9.678;2023-03-01T02:09:23;28.75;;;14.32;;
46745;SDS011;32493;50.514;9.678;2023-03-01T02:11:29;24.58;;;13.40;;
46745;SDS011;32493;50.514;9.678;2023-03-01T02:13:39;26.02;;;13.48;;
46745;SDS011;32493;50.514;9.678;2023-03-01T02:15:48;28.35;;;13.93;;
46745;SDS011;32493;50.514;9.678;2023-03-01T02:17:54;26.08;;;14.00;;
46745;SDS011;32493;50.514;9.678;2023-03-01T02:20:03;29.08;;;14.80;;
46745;SDS011;32493;50.514;9.678;2023-03-01T02:22:22;29.35;;;13.65;;
46745;SDS011;32493;50.514;9.678;2023-03-01T02:24:35;25.95;;;13.40;;
46745;SDS011;32493;50.514;9.678;2023-03-01T02:26:54;28.38;;;12.75;;
46745;SDS011;32493;50.514;9.678;2023-03-01T02:29:03;31.75;;;14.68;;
46745;SDS011;32493;50.514;9.678;2023-03-01T02:31:09;25.27;;;13.27;;
46745;SDS011;32493;50.514;9.678;2023-03-01T02:33:31;32.20;;;14.18;;
46745;SDS011;32493;50.514;9.678;2023-03-01T02:35:39;30.10;;;12.70;;
46745;SDS011;32493;50.514;9.678;2023-03-01T02:37:44;32.20;;;14.70;;
46745;SDS011;32493;50.514;9.678;2023-03-01T02:39:51;28.90;;;15.20;;
46745;SDS011;32493;50.514;9.678;2023-03-01T02:42:02;31.00;;;14.57;;
46745;SDS011;32493;50.514;9.678;2023-03-01T02:46:19;28.60;;;14.15;;
46745;SDS011;32493;50.514;9.678;2023-03-01T02:48:26;30.30;;;13.98;;
46745;SDS011;32493;50.514;9.678;2023-03-01T02:50:53;29.80;;;15.10;;
46745;SDS011;32493;50.514;9.678;2023-03-01T02:53:11;30.20;;;14.45;;
46745;SDS011;32493;50.514;9.678;2023-03-01T02:55:23;30.60;;;14.48;;
46745;SDS011;32493;50.514;9.678;2023-03-01T02:57:29;30.30;;;14.55;;
46745;SDS011;32493;50.514;9.678;2023-03-01T02:59:38;28.92;;;14.30;;
46745;SDS011;32493;50.514;9.678;2023-03-01T03:01:44;27.98;;;14.65;;
46745;SDS011;32493;50.514;9.678;2023-03-01T03:03:49;28.38;;;14.60;;
46745;SDS011;32493;50.514;9.678;2023-03-01T03:05:54;30.55;;;15.07;;
46745;SDS011;32493;50.514;9.678;2023-03-01T03:07:59;27.83;;;14.57;;
46745;SDS011;32493;50.514;9.678;2023-03-01T03:10:12;30.85;;;14.90;;
46745;SDS011;32493;50.514;9.678;2023-03-01T03:12:22;26.50;;;13.63;;
46745;SDS011;32493;50.514;9.678;2023-03-01T03:14:27;29.95;;;14.20;;
46745;SDS011;32493;50.514;9.678;2023-03-01T03:16:39;29.30;;;15.25;;
46745;SDS011;32493;50.514;9.678;2023-03-01T03:18:46;30.20;;;14.93;;
46745;SDS011;32493;50.514;9.678;2023-03-01T03:20:51;29.10;;;14.27;;
46745;SDS011;32493;50.514;9.678;2023-03-01T03:22:58;30.38;;;15.13;;
46745;SDS011;32493;50.514;9.678;2023-03-01T03:25:03;31.05;;;15.48;;
46745;SDS011;32493;50.514;9.678;2023-03-01T03:27:12;30.52;;;14.88;;
46745;SDS011;32493;50.514;9.678;2023-03-01T03:29:17;30.85;;;14.43;;
46745;SDS011;32493;50.514;9.678;2023-03-01T03:31:22;33.88;;;14.57;;
46745;SDS011;32493;50.514;9.678;2023-03-01T03:33:30;29.75;;;14.88;;
46745;SDS011;32493;50.514;9.678;2023-03-01T03:37:44;26.55;;;13.52;;
46745;SDS011;32493;50.514;9.678;2023-03-01T03:40:02;32.05;;;15.05;;
46745;SDS011;32493;50.514;9.678;2023-03-01T03:42:17;27.48;;;14.05;;
46745;SDS011;32493;50.514;9.678;2023-03-01T03:44:22;27.65;;;13.85;;
46745;SDS011;32493;50.514;9.678;2023-03-01T03:46:27;29.75;;;15.00;;
46745;SDS011;32493;50.514;9.678;2023-03-01T03:48:36;24.90;;;13.38;;
46745;SDS011;32493;50.514;9.678;2023-03-01T03:50:47;30.85;;;13.90;;
46745;SDS011;32493;50.514;9.678;2023-03-01T03:52:54;25.85;;;13.25;;
46745;SDS011;32493;50.514;9.678;2023-03-01T03:55:03;27.45;;;13.73;;
46745;SDS011;32493;50.514;9.678;2023-03-01T03:57:12;28.80;;;13.85;;
46745;SDS011;32493;50.514;9.678;2023-03-01T03:59:17;27.42;;;13.98;;
46745;SDS011;32493;50.514;9.678;2023-03-01T04:01:22;35.00;;;14.15;;
46745;SDS011;32493;50.514;9.678;2023-03-01T04:03:28;28.90;;;13.13;;
46745;SDS011;32493;50.514;9.678;2023-03-01T04:05:37;28.38;;;13.60;;
46745;SDS011;32493;50.514;9.678;2023-03-01T04:07:44;27.67;;;14.65;;
46745;SDS011;32493;50.514;9.678;2023-03-01T04:09:50;25.27;;;12.82;;
46745;SDS011;32493;50.514;9.678;2023-03-01T04:11:57;28.83;;;14.23;;
46745;SDS011;32493;50.514;9.678;2023-03-01T04:14:02;27.02;;;14.75;;
46745;SDS011;32493;50.514;9.678;2023-03-01T04:16:08;23.90;;;13.25;;
46745;SDS011;32493;50.514;9.678;2023-03-01T04:18:13;25.92;;;13.60;;
46745;SDS011;32493;50.514;9.678;2023-03-01T04:20:21;28.00;;;13.50;;
46745;SDS011;32493;50.514;9.678;2023-03-01T04:22:31;24.95;;;12.85;;
46745;SDS011;32493;50.514;9.678;2023-03-01T04:24:37;27.13;;;12.57;;
46745;SDS011;32493;50.514;9.678;2023-03-01T04:26:42;29.90;;;13.75;;
46745;SDS011;32493;50.514;9.678;2023-03-01T04:28:48;26.38;;;12.85;;
46745;SDS011;32493;50.514;9.678;2023-03-01T04:30:54;29.95;;;14.40;;
46745;SDS011;32493;50.514;9.678;2023-03-01T04:33:02;28.17;;;13.60;;
46745;SDS011;32493;50.514;9.678;2023-03-01T04:35:08;27.27;;;13.80;;
46745;SDS011;32493;50.514;9.678;2023-03-01T04:37:13;27.20;;;12.77;;
46745;SDS011;32493;50.514;9.678;2023-03-01T04:39:21;27.33;;;13.32;;
46745;SDS011;32493;50.514;9.678;2023-03-01T04:41:26;30.98;;;13.85;;
46745;SDS011;32493;50.514;9.678;2023-03-01T04:43:31;27.45;;;13.43;;
46745;SDS011;32493;50.514;9.678;2023-03-01T04:45:36;26.48;;;13.02;;
46745;SDS011;32493;50.514;9.678;2023-03-01T04:47:44;25.08;;;13.00;;
46745;SDS011;32493;50.514;9.678;2023-03-01T04:49:50;26.27;;;13.27;;
46745;SDS011;32493;50.514;9.678;2023-03-01T04:51:56;28.10;;;14.10;;
46745;SDS011;32493;50.514;9.678;2023-03-01T04:54:03;29.33;;;14.10;;
46745;SDS011;32493;50.514;9.678;2023-03-01T04:56:13;29.83;;;13.88;;
46745;SDS011;32493;50.514;9.678;2023-03-01T04:58:19;26.88;;;14.00;;
46745;SDS011;32493;50.514;9.678;2023-03-01T05:00:24;28.52;;;13.70;;
46745;SDS011;32493;50.514;9.678;2023-03-01T05:02:30;26.50;;;13.38;;
46745;SDS011;32493;50.514;9.678;2023-03-01T05:04:36;28.92;;;13.93;;
46745;SDS011;32493;50.514;9.678;2023-03-01T05:06:42;26.83;;;13.73;;
46745;SDS011;32493;50.514;9.678;2023-03-01T05:08:47;27.05;;;14.07;;
46745;SDS011;32493;50.514;9.678;2023-03-01T05:10:53;28.88;;;14.05;;
46745;SDS011;32493;50.514;9.678;2023-03-01T05:13:01;28.92;;;13.68;;
46745;SDS011;32493;50.514;9.678;2023-03-01T05:15:08;26.63;;;13.60;;
46745;SDS011;32493;50.514;9.678;2023-03-01T05:17:14;30.00;;;14.07;;
46745;SDS011;32493;50.514;9.678;2023-03-01T05:19:19;28.85;;;14.13;;
46745;SDS011;32493;50.514;9.678;2023-03-01T05:21:25;27.42;;;13.98;;
46745;SDS011;32493;50.514;9.678;2023-03-01T05:23:30;31.30;;;14.77;;
46745;SDS011;32493;50.514;9.678;2023-03-01T05:25:36;32.83;;;14.75;;
46745;SDS011;32493;50.514;9.678;2023-03-01T05:27:42;27.88;;;14.68;;
46745;SDS011;32493;50.514;9.678;2023-03-01T05:29:50;29.88;;;14.50;;
46745;SDS011;32493;50.514;9.678;2023-03-01T05:31:57;27.33;;;14.20;;
46745;SDS011;32493;50.514;9.678;2023-03-01T05:34:04;33.05;;;14.05;;
46745;SDS011;32493;50.514;9.678;2023-03-01T05:36:09;31.05;;;14.55;;
46745;SDS011;32493;50.514;9.678;2023-03-01T05:38:15;27.33;;;14.43;;
46745;SDS011;32493;50.514;9.678;2023-03-01T05:40:22;29.23;;;13.55;;
46745;SDS011;32493;50.514;9.678;2023-03-01T05:42:28;29.00;;;15.40;;
46745;SDS011;32493;50.514;9.678;2023-03-01T05:44:33;28.33;;;14.18;;
46745;SDS011;32493;50.514;9.678;2023-03-01T05:46:41;30.02;;;13.98;;
46745;SDS011;32493;50.514;9.678;2023-03-01T05:48:46;29.65;;;14.48;;
46745;SDS011;32493;50.514;9.678;2023-03-01T05:50:51;35.97;;;14.93;;
46745;SDS011;32493;50.514;9.678;2023-03-01T05:52:57;33.03;;;15.43;;
46745;SDS011;32493;50.514;9.678;2023-03-01T05:55:06;30.63;;;14.25;;
46745;SDS011;32493;50.514;9.678;2023-03-01T05:57:12;28.30;;;14.43;;
46745;SDS011;32493;50.514;9.678;2023-03-01T05:59:17;28.52;;;15.48;;
46745;SDS011;32493;50.514;9.678;2023-03-01T06:01:23;34.67;;;15.25;;
46745;SDS011;32493;50.514;9.678;2023-03-01T06:03:31;30.50;;;15.25;;
46745;SDS011;32493;50.514;9.678;2023-03-01T06:05:36;32.70;;;15.77;;
46745;SDS011;32493;50.514;9.678;2023-03-01T06:07:42;35.70;;;15.43;;
46745;SDS011;32493;50.514;9.678;2023-03-01T06:09:47;33.00;;;15.75;;
46745;SDS011;32493;50.514;9.678;2023-03-01T06:11:55;31.50;;;15.20;;
46745;SDS011;32493;50.514;9.678;2023-03-01T06:14:01;40.33;;;16.13;;
46745;SDS011;32493;50.514;9.678;2023-03-01T06:16:08;36.05;;;15.82;;
46745;SDS011;32493;50.514;9.678;2023-03-01T06:18:14;35.25;;;15.30;;
46745;SDS011;32493;50.514;9.678;2023-03-01T06:20:23;33.58;;;16.40;;
46745;SDS011;32493;50.514;9.678;2023-03-01T06:22:30;30.85;;;15.55;;
46745;SDS011;32493;50.514;9.678;2023-03-01T06:24:36;33.63;;;16.35;;
46745;SDS011;32493;50.514;9.678;2023-03-01T06:26:41;36.53;;;15.95;;
46745;SDS011;32493;50.514;9.678;2023-03-01T06:28:46;35.72;;;17.45;;
46745;SDS011;32493;50.514;9.678;2023-03-01T06:30:52;35.63;;;16.80;;
46745;SDS011;32493;50.514;9.678;2023-03-01T06:32:57;34.28;;;16.88;;
46745;SDS011;32493;50.514;9.678;2023-03-01T06:35:05;35.72;;;15.23;;
46745;SDS011;32493;50.514;9.678;2023-03-01T06:37:14;39.10;;;16.80;;
46745;SDS011;32493;50.514;9.678;2023-03-01T06:39:22;35.00;;;15.95;;
46745;SDS011;32493;50.514;9.678;2023-03-01T06:41:28;36.60;;;17.00;;
46745;SDS011;32493;50.514;9.678;2023-03-01T06:43:34;37.22;;;17.50;;
46745;SDS011;32493;50.514;9.678;2023-03-01T06:45:39;38.13;;;17.70;;
46745;SDS011;32493;50.514;9.678;2023-03-01T06:47:45;37.88;;;17.73;;
46745;SDS011;32493;50.514;9.678;2023-03-01T06:49:51;39.25;;;18.95;;
46745;SDS011;32493;50.514;9.678;2023-03-01T06:51:56;47.85;;;22.40;;
46745;SDS011;32493;50.514;9.678;2023-03-01T06:54:04;58.45;;;19.95;;
46745;SDS011;32493;50.514;9.678;2023-03-01T06:56:09;47.53;;;18.55;;
46745;SDS011;32493;50.514;9.678;2023-03-01T06:58:14;38.90;;;17.52;;
46745;SDS011;32493;50.514;9.678;2023-03-01T07:00:20;37.03;;;17.50;;
46745;SDS011;32493;50.514;9.678;2023-03-01T07:02:29;32.65;;;16.48;;
46745;SDS011;32493;50.514;9.678;2023-03-01T07:04:34;32.65;;;14.00;;
46745;SDS011;32493;50.514;9.678;2023-03-01T07:06:43;36.47;;;15.48;;
46745;SDS011;32493;50.514;9.678;2023-03-01T07:08:55;44.72;;;18.67;;
46745;SDS011;32493;50.514;9.678;2023-03-01T07:11:03;36.50;;;16.65;;
46745;SDS011;32493;50.514;9.678;2023-03-01T07:13:09;31.50;;;16.10;;
46745;SDS011;32493;50.514;9.678;2023-03-01T07:15:14;32.65;;;16.52;;
46745;SDS011;32493;50.514;9.678;2023-03-01T07:17:20;36.90;;;16.60;;
46745;SDS011;32493;50.514;9.678;2023-03-01T07:19:25;33.40;;;14.90;;
46745;SDS011;32493;50.514;9.678;2023-03-01T07:21:30;30.05;;;15.00;;
46745;SDS011;32493;50.514;9.678;2023-03-01T07:23:35;35.85;;;16.50;;
46745;SDS011;32493;50.514;9.678;2023-03-01T07:25:40;36.80;;;16.20;;
46745;SDS011;32493;50.514;9.678;2023-03-01T07:27:51;34.72;;;17.15;;
46745;SDS011;32493;50.514;9.678;2023-03-01T07:29:57;37.78;;;17.30;;
46745;SDS011;32493;50.514;9.678;2023-03-01T07:32:03;35.88;;;16.25;;
46745;SDS011;32493;50.514;9.678;2023-03-01T07:34:10;33.23;;;16.80;;
46745;SDS011;32493;50.514;9.678;2023-03-01T07:36:17;34.45;;;15.93;;
46745;SDS011;32493;50.514;9.678;2023-03-01T07:38:22;32.25;;;15.35;;
46745;SDS011;32493;50.514;9.678;2023-03-01T07:40:27;36.47;;;16.17;;
46745;SDS011;32493;50.514;9.678;2023-03-01T07:42:33;35.08;;;16.40;;
46745;SDS011;32493;50.514;9.678;2023-03-01T07:44:41;32.20;;;16.95;;
46745;SDS011;32493;50.514;9.678;2023-03-01T07:46:50;31.92;;;15.27;;
46745;SDS011;32493;50.514;9.678;2023-03-01T07:48:58;33.75;;;16.05;;
46745;SDS011;32493;50.514;9.678;2023-03-01T07:51:06;35.78;;;15.80;;
46745;SDS011;32493;50.514;9.678;2023-03-01T07:53:11;27.27;;;13.52;;
46745;SDS011;32493;50.514;9.678;2023-03-01T07:55:17;33.30;;;16.60;;
46745;SDS011;32493;50.514;9.678;2023-03-01T07:57:23;34.83;;;16.25;;
46745;SDS011;32493;50.514;9.678;2023-03-01T07:59:29;30.67;;;15.63;;
46745;SDS011;32493;50.514;9.678;2023-03-01T08:01:37;29.63;;;15.48;;
46745;SDS011;32493;50.514;9.678;2023-03-01T08:03:42;33.42;;;15.43;;
46745;SDS011;32493;50.514;9.678;2023-03-01T08:05:49;32.22;;;15.65;;
46745;SDS011;32493;50.514;9.678;2023-03-01T08:10:02;27.75;;;14.05;;
46745;SDS011;32493;50.514;9.678;2023-03-01T08:12:08;33.75;;;15.75;;
46745;SDS011;32493;50.514;9.678;2023-03-01T08:14:13;31.65;;;15.27;;
46745;SDS011;32493;50.514;9.678;2023-03-01T08:16:18;29.70;;;14.65;;
46745;SDS011;32493;50.514;9.678;2023-03-01T08:18:26;32.92;;;15.35;;
46745;SDS011;32493;50.514;9.678;2023-03-01T08:22:36;27.27;;;14.95;;
46745;SDS011;32493;50.514;9.678;2023-03-01T08:24:41;32.25;;;15.43;;
46745;SDS011;32493;50.514;9.678;2023-03-01T08:26:46;30.88;;;16.38;;
46745;SDS011;32493;50.514;9.678;2023-03-01T08:28:52;31.85;;;15.50;;
46745;SDS011;32493;50.514;9.678;2023-03-01T08:30:57;31.05;;;14.68;;
46745;SDS011;32493;50.514;9.678;2023-03-01T08:33:02;30.95;;;14.80;;
46745;SDS011;32493;50.514;9.678;2023-03-01T08:35:10;34.47;;;16.65;;
46745;SDS011;32493;50.514;9.678;2023-03-01T08:39:20;29.67;;;14.93;;
46745;SDS011;32493;50.514;9.678;2023-03-01T08:41:26;28.27;;;14.63;;
46745;SDS011;32493;50.514;9.678;2023-03-01T08:43:32;28.77;;;15.02;;
46745;SDS011;32493;50.514;9.678;2023-03-01T08:45:37;30.30;;;14.38;;
46745;SDS011;32493;50.514;9.678;2023-03-01T08:47:42;27.02;;;14.57;;
46745;SDS011;32493;50.514;9.678;2023-03-01T08:49:48;26.98;;;13.65;;
46745;SDS011;32493;50.514;9.678;2023-03-01T08:51:57;31.92;;;15.18;;
46745;SDS011;32493;50.514;9.678;2023-03-01T08:54:02;29.15;;;14.52;;
46745;SDS011;32493;50.514;9.678;2023-03-01T08:56:08;29.98;;;14.95;;
46745;SDS011;32493;50.514;9.678;2023-03-01T08:58:14;34.25;;;14.90;;
46745;SDS011;32493;50.514;9.678;2023-03-01T09:00:19;25.85;;;12.27;;
46745;SDS011;32493;50.514;9.678;2023-03-01T09:02:26;21.17;;;11.90;;
46745;SDS011;32493;50.514;9.678;2023-03-01T09:04:31;24.98;;;11.90;;
46745;SDS011;32493;50.514;9.678;2023-03-01T09:06:36;27.33;;;12.70;;
46745;SDS011;32493;50.514;9.678;2023-03-01T09:08:45;23.63;;;12.02;;
46745;SDS011;32493;50.514;9.678;2023-03-01T09:10:52;23.25;;;12.07;;
46745;SDS011;32493;50.514;9.678;2023-03-01T09:12:57;22.02;;;11.73;;
46745;SDS011;32493;50.514;9.678;2023-03-01T09:15:03;20.63;;;11.80;;
46745;SDS011;32493;50.514;9.678;2023-03-01T09:17:09;22.67;;;10.60;;
46745;SDS011;32493;50.514;9.678;2023-03-01T09:19:14;25.33;;;12.27;;
46745;SDS011;32493;50.514;9.678;2023-03-01T09:21:20;23.50;;;12.18;;
46745;SDS011;32493;50.514;9.678;2023-03-01T09:23:41;23.95;;;11.55;;
46745;SDS011;32493;50.514;9.678;2023-03-01T09:25:51;21.08;;;10.95;;
46745;SDS011;32493;50.514;9.678;2023-03-01T09:27:57;23.48;;;11.45;;
46745;SDS011;32493;50.514;9.678;2023-03-01T09:30:02;24.67;;;12.30;;
46745;SDS011;32493;50.514;9.678;2023-03-01T09:32:08;19.45;;;10.68;;
46745;SDS011;32493;50.514;9.678;2023-03-01T09:34:13;22.50;;;11.48;;
46745;SDS011;32493;50.514;9.678;2023-03-01T09:36:24;21.38;;;10.75;;
46745;SDS011;32493;50.514;9.678;2023-03-01T09:38:30;19.10;;;10.95;;
46745;SDS011;32493;50.514;9.678;2023-03-01T09:40:41;27.52;;;10.85;;
46745;SDS011;32493;50.514;9.678;2023-03-01T09:42:53;24.02;;;11.35;;
46745;SDS011;32493;50.514;9.678;2023-03-01T09:45:06;17.15;;;9.48;;
46745;SDS011;32493;50.514;9.678;2023-03-01T09:47:19;24.00;;;10.32;;
46745;SDS011;32493;50.514;9.678;2023-03-01T09:49:28;21.88;;;10.48;;
46745;SDS011;32493;50.514;9.678;2023-03-01T09:51:37;22.15;;;10.70;;
46745;SDS011;32493;50.514;9.678;2023-03-01T09:53:42;18.00;;;10.73;;
46745;SDS011;32493;50.514;9.678;2023-03-01T09:55:51;20.77;;;10.65;;
46745;SDS011;32493;50.514;9.678;2023-03-01T09:58:05;23.83;;;11.23;;
46745;SDS011;32493;50.514;9.678;2023-03-01T10:00:36;19.77;;;10.57;;
46745;SDS011;32493;50.514;9.678;2023-03-01T10:02:47;20.27;;;10.68;;
46745;SDS011;32493;50.514;9.678;2023-03-01T10:04:57;19.65;;;11.05;;
46745;SDS011;32493;50.514;9.678;2023-03-01T10:07:19;21.67;;;10.63;;
46745;SDS011;32493;50.514;9.678;2023-03-01T10:09:36;24.25;;;11.48;;
46745;SDS011;32493;50.514;9.678;2023-03-01T10:11:46;17.48;;;10.65;;
46745;SDS011;32493;50.514;9.678;2023-03-01T10:13:58;18.50;;;10.35;;
46745;SDS011;32493;50.514;9.678;2023-03-01T10:16:10;21.38;;;10.88;;
46745;SDS011;32493;50.514;9.678;2023-03-01T10:18:19;20.77;;;10.73;;
46745;SDS011;32493;50.514;9.678;2023-03-01T10:20:29;22.17;;;12.05;;
46745;SDS011;32493;50.514;9.678;2023-03-01T10:22:42;20.45;;;11.38;;
46745;SDS011;32493;50.514;9.678;2023-03-01T10:24:52;20.30;;;11.40;;
46745;SDS011;32493;50.514;9.678;2023-03-01T10:27:03;22.02;;;12.27;;
46745;SDS011;32493;50.514;9.678;2023-03-01T10:29:13;22.30;;;11.45;;
46745;SDS011;32493;50.514;9.678;2023-03-01T10:31:21;20.98;;;11.18;;
46745;SDS011;32493;50.514;9.678;2023-03-01T10:33:38;19.92;;;11.63;;
46745;SDS011;32493;50.514;9.678;2023-03-01T10:35:45;18.85;;;10.38;;
46745;SDS011;32493;50.514;9.678;2023-03-01T10:37:57;18.83;;;10.80;;
46745;SDS011;32493;50.514;9.678;2023-03-01T10:40:07;18.95;;;11.20;;
46745;SDS011;32493;50.514;9.678;2023-03-01T10:42:22;21.83;;;11.48;;
46745;SDS011;32493;50.514;9.678;2023-03-01T10:44:40;23.88;;;11.57;;
46745;SDS011;32493;50.514;9.678;2023-03-01T10:46:48;21.48;;;10.88;;
46745;SDS011;32493;50.514;9.678;2023-03-01T10:49:06;18.55;;;11.15;;
46745;SDS011;32493;50.514;9.678;2023-03-01T10:51:19;18.65;;;10.05;;
46745;SDS011;32493;50.514;9.678;2023-03-01T10:53:26;20.33;;;11.55;;
46745;SDS011;32493;50.514;9.678;2023-03-01T10:55:35;20.02;;;9.88;;
46745;SDS011;32493;50.514;9.678;2023-03-01T10:57:45;17.95;;;10.57;;
46745;SDS011;32493;50.514;9.678;2023-03-01T11:00:00;22.92;;;11.27;;
46745;SDS011;32493;50.514;9.678;2023-03-01T11:02:25;18.38;;;10.60;;
46745;SDS011;32493;50.514;9.678;2023-03-01T11:04:34;16.90;;;9.55;;
46745;SDS011;32493;50.514;9.678;2023-03-01T11:06:40;19.38;;;11.07;;
46745;SDS011;32493;50.514;9.678;2023-03-01T11:08:46;18.33;;;10.80;;
46745;SDS011;32493;50.514;9.678;2023-03-01T11:11:01;18.27;;;9.85;;
46745;SDS011;32493;50.514;9.678;2023-03-01T11:13:36;23.73;;;11.77;;
46745;SDS011;32493;50.514;9.678;2023-03-01T11:15:43;18.63;;;10.60;;
46745;SDS011;32493;50.514;9.678;2023-03-01T11:18:03;19.70;;;10.55;;
46745;SDS011;32493;50.514;9.678;2023-03-01T11:20:16;17.35;;;10.50;;
46745;SDS011;32493;50.514;9.678;2023-03-01T11:22:30;18.73;;;10.45;;
46745;SDS011;32493;50.514;9.678;2023-03-01T11:24:39;20.42;;;11.25;;
46745;SDS011;32493;50.514;9.678;2023-03-01T11:26:53;21.88;;;11.43;;
46745;SDS011;32493;50.514;9.678;2023-03-01T11:29:11;20.17;;;10.38;;
46745;SDS011;32493;50.514;9.678;2023-03-01T11:31:25;24.38;;;10.80;;
46745;SDS011;32493;50.514;9.678;2023-03-01T11:35:46;19.42;;;10.20;;
46745;SDS011;32493;50.514;9.678;2023-03-01T11:38:02;20.65;;;10.52;;
46745;SDS011;32493;50.514;9.678;2023-03-01T11:40:21;18.90;;;11.35;;
46745;SDS011;32493;50.514;9.678;2023-03-01T11:42:33;20.75;;;10.60;;
46745;SDS011;32493;50.514;9.678;2023-03-01T11:44:54;19.25;;;10.77;;
46745;SDS011;32493;50.514;9.678;2023-03-01T11:47:15;15.23;;;9.82;;
46745;SDS011;32493;50.514;9.678;2023-03-01T11:49:52;19.50;;;11.23;;
46745;SDS011;32493;50.514;9.678;2023-03-01T11:52:22;19.95;;;10.70;;
46745;SDS011;32493;50.514;9.678;2023-03-01T11:54:43;18.00;;;10.55;;
46745;SDS011;32493;50.514;9.678;2023-03-01T11:57:01;21.15;;;12.32;;
46745;SDS011;32493;50.514;9.678;2023-03-01T12:01:55;20.60;;;11.48;;
46745;SDS011;32493;50.514;9.678;2023-03-01T12:04:28;18.48;;;10.70;;
46745;SDS011;32493;50.514;9.678;2023-03-01T12:07:01;20.65;;;11.65;;
46745;SDS011;32493;50.514;9.678;2023-03-01T12:09:17;20.73;;;11.82;;
46745;SDS011;32493;50.514;9.678;2023-03-01T12:11:55;19.80;;;11.40;;
46745;SDS011;32493;50.514;9.678;2023-03-01T12:14:40;21.30;;;11.50;;
46745;SDS011;32493;50.514;9.678;2023-03-01T12:19:48;17.50;;;10.98;;
46745;SDS011;32493;50.514;9.678;2023-03-01T12:22:15;17.85;;;10.63;;
46745;SDS011;32493;50.514;9.678;2023-03-01T12:24:37;20.00;;;11.07;;
46745;SDS011;32493;50.514;9.678;2023-03-01T12:27:11;20.63;;;11.43;;
46745;SDS011;32493;50.514;9.678;2023-03-01T12:29:32;19.50;;;11.38;;
46745;SDS011;32493;50.514;9.678;2023-03-01T12:31:57;20.73;;;11.38;;
46745;SDS011;32493;50.514;9.678;2023-03-01T12:34:33;19.85;;;10.52;;
46745;SDS011;32493;50.514;9.678;2023-03-01T12:39:37;18.85;;;11.13;;
46745;SDS011;32493;50.514;9.678;2023-03-01T12:41:55;18.60;;;10.43;;
46745;SDS011;32493;50.514;9.678;2023-03-01T12:44:15;19.42;;;10.70;;
46745;SDS011;32493;50.514;9.678;2023-03-01T12:46:43;18.77;;;10.68;;
46745;SDS011;32493;50.514;9.678;2023-03-01T12:49:02;19.05;;;10.57;;
46745;SDS011;32493;50.514;9.678;2023-03-01T12:51:17;17.73;;;10.15;;
46745;SDS011;32493;50.514;9.678;2023-03-01T12:53:28;19.25;;;10.07;;
46745;SDS011;32493;50.514;9.678;2023-03-01T12:55:37;17.35;;;10.50;;
46745;SDS011;32493;50.514;9.678;2023-03-01T12:57:46;17.17;;;10.25;;